Middleburg, Virginia
Current Conditions -  °F | °C
As of 3:55 AM on Thursday 23 Oct 2014 (Local Time) from KJYO Reporting Station
Overcast Overcast  
Wind Chill: 52°   Ceiling: 4000
Heat Index: 52°   Visibility: 10mi
Dew Point: 45°   Wind: 22mph
Humidity: 76%   Direction: 330°NNW
Pressure: 29.91"   Gusts: 32mph
Location:  38.97°N, 77.74°W
Report Text: KJYO 230755Z AUTO 33019G28KT 10SM BKN040 OVC085 11/07 A2991 RMK AO2
Loading
Personal Weather Stations






























Interactive Weather Map
Tropical Storm Tracking
New forecast layout! Learn more

10-Day Weather Forecast

Advertisements
Track Severe Weather on mobile